createdAt,value
2022-11-03T00:00:51.509Z,100665.00
2022-11-03T00:03:23.183Z,100666.00
2022-11-03T00:06:08.600Z,100669.00
2022-11-03T00:08:43.008Z,100666.00
2022-11-03T00:11:18.077Z,100675.00
2022-11-03T00:13:54.480Z,100678.00
2022-11-03T00:16:27.420Z,100679.00
2022-11-03T00:19:00.544Z,100674.00
2022-11-03T00:21:33.606Z,100668.00
2022-11-03T00:24:07.068Z,100671.00
2022-11-03T00:26:44.481Z,100668.00
2022-11-03T00:29:18.328Z,100664.00
2022-11-03T00:31:51.205Z,100660.00
2022-11-03T00:34:24.339Z,100669.00
2022-11-03T00:36:57.332Z,100659.00
2022-11-03T00:39:30.465Z,100676.00
2022-11-03T00:42:03.366Z,100670.00
2022-11-03T00:44:36.488Z,100676.00
2022-11-03T00:47:12.507Z,100665.00
2022-11-03T00:49:45.609Z,100671.00
2022-11-03T00:52:18.738Z,100680.00
2022-11-03T00:54:55.485Z,100676.00
2022-11-03T00:57:29.161Z,100687.00
2022-11-03T01:00:02.088Z,100671.00
2022-11-03T01:02:35.377Z,100667.00
2022-11-03T01:05:26.307Z,100669.00
2022-11-03T01:10:33.171Z,100691.00
2022-11-03T01:13:06.698Z,100680.00
2022-11-03T01:15:39.876Z,100700.00
2022-11-03T01:18:13.073Z,100694.00
2022-11-03T01:20:45.986Z,100694.00
2022-11-03T01:23:19.038Z,100699.00
2022-11-03T01:25:51.970Z,100699.00
2022-11-03T01:28:24.956Z,100712.00
2022-11-03T01:30:57.967Z,100718.00
2022-11-03T01:33:30.893Z,100722.00
2022-11-03T01:36:04.008Z,100725.00
2022-11-03T01:38:38.192Z,100719.00
2022-11-03T01:41:12.802Z,100723.00
2022-11-03T01:43:48.803Z,100723.00
2022-11-03T01:46:31.312Z,100744.00
2022-11-03T01:49:06.120Z,100718.00
2022-11-03T01:51:40.122Z,100715.00
2022-11-03T01:54:17.685Z,100696.00
2022-11-03T01:56:50.906Z,100696.00
2022-11-03T01:59:26.344Z,100719.00
2022-11-03T02:01:59.647Z,100705.00
2022-11-03T02:04:38.106Z,100717.00
2022-11-03T02:07:22.436Z,100707.00
2022-11-03T02:09:55.472Z,100715.00
2022-11-03T02:12:28.950Z,100707.00
2022-11-03T02:15:03.593Z,100707.00
2022-11-03T02:17:37.895Z,100709.00
2022-11-03T02:20:14.454Z,100721.00
2022-11-03T02:23:01.596Z,100728.00
2022-11-03T02:25:52.683Z,100710.00
2022-11-03T02:28:27.488Z,100708.00
2022-11-03T02:31:35.178Z,100717.00
2022-11-03T02:34:22.150Z,100725.00
2022-11-03T02:36:57.430Z,100733.00
2022-11-03T02:39:50.760Z,100727.00
2022-11-03T02:42:25.470Z,100725.00
2022-11-03T02:45:01.017Z,100729.00
2022-11-03T02:47:35.331Z,100730.00
2022-11-03T02:50:10.447Z,100715.00
2022-11-03T02:52:48.598Z,100711.00
2022-11-03T02:55:38.435Z,100713.00
2022-11-03T02:58:15.923Z,100708.00
2022-11-03T03:01:00.193Z,100710.00
2022-11-03T03:03:38.141Z,100715.00
2022-11-03T03:06:24.342Z,100710.00
2022-11-03T03:08:58.777Z,100718.00
2022-11-03T03:11:35.803Z,100717.00
2022-11-03T03:14:14.102Z,100723.00
2022-11-03T03:16:51.959Z,100730.00
2022-11-03T03:19:29.539Z,100732.00
2022-11-03T03:22:03.848Z,100721.00
2022-11-03T03:24:41.523Z,100724.00
2022-11-03T03:27:16.314Z,100730.00
2022-11-03T03:29:53.698Z,100746.00
2022-11-03T03:32:28.743Z,100744.00
2022-11-03T03:35:03.302Z,100725.00
2022-11-03T03:37:38.294Z,100729.00
2022-11-03T03:40:13.425Z,100726.00
2022-11-03T03:42:47.655Z,100739.00
2022-11-03T03:45:22.172Z,100732.00
2022-11-03T03:47:57.863Z,100739.00
2022-11-03T03:50:33.271Z,100734.00
2022-11-03T03:53:11.270Z,100732.00
2022-11-03T03:55:46.024Z,100739.00
2022-11-03T03:58:19.511Z,100723.00
2022-11-03T04:00:54.793Z,100721.00
2022-11-03T04:03:29.679Z,100717.00
2022-11-03T04:06:03.025Z,100712.00
2022-11-03T04:08:36.030Z,100711.00
2022-11-03T04:11:29.253Z,100718.00
2022-11-03T04:14:24.273Z,100723.00
2022-11-03T04:17:14.749Z,100730.00
2022-11-03T04:20:04.959Z,100753.00
2022-11-03T04:22:38.232Z,100753.00
2022-11-03T04:25:11.919Z,100757.00
2022-11-03T04:27:46.414Z,100762.00
2022-11-03T04:30:21.650Z,100765.00
2022-11-03T04:32:55.535Z,100741.00
2022-11-03T04:35:31.002Z,100756.00
2022-11-03T04:38:09.215Z,100763.00
2022-11-03T04:40:43.416Z,100755.00
2022-11-03T04:43:18.187Z,100764.00
2022-11-03T04:45:56.495Z,100769.00
2022-11-03T04:48:31.008Z,100751.00
2022-11-03T04:51:09.542Z,100764.00
2022-11-03T04:53:43.918Z,100766.00
2022-11-03T04:56:22.256Z,100759.00
2022-11-03T04:58:55.612Z,100768.00
2022-11-03T05:01:29.511Z,100774.00
2022-11-03T05:04:03.016Z,100766.00
2022-11-03T05:06:39.205Z,100757.00
2022-11-03T05:09:16.723Z,100776.00
2022-11-03T05:11:52.854Z,100780.00
2022-11-03T05:14:27.913Z,100784.00
2022-11-03T05:17:01.393Z,100793.00
2022-11-03T05:19:42.201Z,100797.00
2022-11-03T05:22:17.046Z,100790.00
2022-11-03T05:24:49.994Z,100789.00
2022-11-03T05:27:25.412Z,100786.00
2022-11-03T05:30:01.214Z,100790.00
2022-11-03T05:32:47.435Z,100789.00
2022-11-03T05:35:24.476Z,100792.00
2022-11-03T05:37:57.333Z,100797.00
2022-11-03T05:40:31.255Z,100804.00
2022-11-03T05:43:27.410Z,100806.00
2022-11-03T05:46:03.638Z,100809.00
2022-11-03T05:48:38.819Z,100819.00
2022-11-03T05:51:30.253Z,100835.00
2022-11-03T05:54:05.540Z,100829.00
2022-11-03T05:56:39.233Z,100837.00
2022-11-03T05:59:14.316Z,100835.00
2022-11-03T06:01:47.482Z,100851.00
2022-11-03T06:04:34.701Z,100851.00
2022-11-03T06:07:28.451Z,100852.00
2022-11-03T06:10:03.943Z,100839.00
2022-11-03T06:12:36.909Z,100844.00
2022-11-03T06:15:12.275Z,100850.00
2022-11-03T06:17:45.712Z,100833.00
2022-11-03T06:20:20.447Z,100846.00
2022-11-03T06:22:58.828Z,100844.00
2022-11-03T06:25:39.411Z,100856.00
2022-11-03T06:28:14.377Z,100860.00
2022-11-03T06:30:48.281Z,100869.00
2022-11-03T06:33:32.118Z,100874.00
2022-11-03T06:36:19.593Z,100889.00
2022-11-03T06:38:54.777Z,100891.00
2022-11-03T06:41:29.101Z,100875.00
2022-11-03T06:46:55.168Z,100872.00
2022-11-03T06:49:33.606Z,100873.00
2022-11-03T06:52:26.975Z,100877.00
2022-11-03T06:55:12.078Z,100883.00
2022-11-03T06:57:47.950Z,100889.00
2022-11-03T07:00:38.547Z,100901.00
2022-11-03T07:03:15.289Z,100909.00
2022-11-03T07:05:48.930Z,100918.00
2022-11-03T07:08:24.175Z,100921.00
2022-11-03T07:11:01.987Z,100926.00
2022-11-03T07:13:36.851Z,100925.00
2022-11-03T07:16:14.755Z,100914.00
2022-11-03T07:18:52.537Z,100928.00
2022-11-03T07:21:43.717Z,100920.00
2022-11-03T07:24:44.320Z,100934.00
2022-11-03T07:27:34.928Z,100917.00
2022-11-03T07:30:16.540Z,100914.00
2022-11-03T07:32:49.871Z,100929.00
2022-11-03T07:35:47.055Z,100933.00
2022-11-03T07:38:07.664Z,100950.00
2022-11-03T07:40:41.910Z,100960.00
2022-11-03T07:43:16.915Z,100960.00
2022-11-03T07:45:51.727Z,100969.00
2022-11-03T07:48:38.288Z,100962.00
2022-11-03T07:51:32.794Z,100968.00
2022-11-03T07:54:28.974Z,100963.00
2022-11-03T07:57:04.516Z,100974.00
2022-11-03T07:59:48.266Z,100965.00
2022-11-03T08:02:38.486Z,100966.00
2022-11-03T08:05:13.143Z,100972.00
2022-11-03T08:07:48.515Z,100968.00
2022-11-03T08:10:27.310Z,100969.00
2022-11-03T08:13:01.621Z,100966.00
2022-11-03T08:15:34.716Z,100965.00
2022-11-03T08:18:07.972Z,100982.00
2022-11-03T08:20:40.748Z,100980.00
2022-11-03T08:23:26.622Z,100981.00
2022-11-03T08:25:52.986Z,100996.00
2022-11-03T08:28:26.251Z,101003.00
2022-11-03T08:31:12.301Z,101000.00
2022-11-03T08:33:41.854Z,101004.00
2022-11-03T08:36:15.247Z,101012.00
2022-11-03T08:38:48.439Z,101016.00
2022-11-03T08:41:21.785Z,101011.00
2022-11-03T08:43:55.333Z,101021.00
2022-11-03T08:46:28.541Z,101007.00
2022-11-03T08:49:01.704Z,101021.00
2022-11-03T08:51:36.990Z,101027.00
2022-11-03T08:54:09.365Z,101036.00
2022-11-03T08:56:42.421Z,101031.00
2022-11-03T08:59:15.537Z,101038.00
2022-11-03T09:01:48.830Z,101047.00
2022-11-03T09:04:22.486Z,101037.00
2022-11-03T09:06:55.887Z,101041.00
2022-11-03T09:12:06.405Z,101045.00
2022-11-03T09:14:39.267Z,101066.00
2022-11-03T09:17:12.601Z,101070.00
2022-11-03T09:19:45.711Z,101069.00
2022-11-03T09:22:18.582Z,101074.00
2022-11-03T09:24:51.855Z,101059.00
2022-11-03T09:27:24.689Z,101069.00
2022-11-03T09:30:12.897Z,101063.00
2022-11-03T09:32:33.243Z,101072.00
2022-11-03T09:35:06.637Z,101079.00
2022-11-03T09:37:44.486Z,101077.00
2022-11-03T09:40:19.484Z,101076.00
2022-11-03T09:42:52.797Z,101072.00
2022-11-03T09:45:25.832Z,101074.00
2022-11-03T09:48:01.373Z,101076.00
2022-11-03T09:50:39.651Z,101082.00
2022-11-03T09:53:14.114Z,101090.00
2022-11-03T09:55:47.253Z,101096.00
2022-11-03T09:58:21.445Z,101090.00
2022-11-03T10:00:54.903Z,101095.00
2022-11-03T10:03:28.241Z,101092.00
2022-11-03T10:06:01.440Z,101081.00
2022-11-03T10:08:36.685Z,101081.00
2022-11-03T10:11:11.262Z,101085.00
2022-11-03T10:13:54.995Z,101088.00
2022-11-03T10:16:28.632Z,101093.00
2022-11-03T10:19:02.853Z,101092.00
2022-11-03T10:21:36.609Z,101082.00
2022-11-03T10:24:10.129Z,101086.00
2022-11-03T10:26:54.300Z,101092.00
2022-11-03T10:29:32.470Z,101083.00
2022-11-03T10:32:05.279Z,101076.00
2022-11-03T10:34:43.623Z,101077.00
2022-11-03T10:37:25.651Z,101073.00
2022-11-03T10:40:00.633Z,101083.00
2022-11-03T10:42:39.567Z,101074.00
2022-11-03T10:45:29.396Z,101083.00
2022-11-03T10:48:12.483Z,101081.00
2022-11-03T10:50:45.762Z,101092.00
2022-11-03T10:53:23.798Z,101084.00
2022-11-03T10:55:57.558Z,101081.00
2022-11-03T10:58:30.477Z,101084.00
2022-11-03T11:01:03.466Z,101085.00
2022-11-03T11:03:37.729Z,101089.00
2022-11-03T11:06:12.373Z,101079.00
2022-11-03T11:08:46.355Z,101087.00
2022-11-03T11:11:20.801Z,101072.00
2022-11-03T11:14:27.661Z,101080.00
2022-11-03T11:17:02.106Z,101102.00
2022-11-03T11:19:37.111Z,101096.00
2022-11-03T11:22:12.140Z,101095.00
2022-11-03T11:24:50.615Z,101090.00
2022-11-03T11:27:38.004Z,101094.00
2022-11-03T11:30:13.345Z,101104.00
2022-11-03T11:32:54.913Z,101093.00
2022-11-03T11:35:33.308Z,101104.00
2022-11-03T11:38:08.871Z,101107.00
2022-11-03T11:40:55.615Z,101112.00
2022-11-03T11:43:32.063Z,101111.00
2022-11-03T11:46:29.621Z,101109.00
2022-11-03T11:49:04.687Z,101108.00
2022-11-03T11:51:43.318Z,101104.00
2022-11-03T11:54:21.299Z,101099.00
2022-11-03T11:56:55.320Z,101108.00
2022-11-03T11:59:28.353Z,101090.00
2022-11-03T12:02:02.128Z,101086.00
2022-11-03T12:04:36.351Z,101091.00
2022-11-03T12:07:09.709Z,101095.00
2022-11-03T12:09:43.566Z,101104.00
2022-11-03T12:12:17.523Z,101094.00
2022-11-03T12:14:50.426Z,101090.00
2022-11-03T12:17:25.415Z,101085.00
2022-11-03T12:19:58.554Z,101094.00
2022-11-03T12:22:33.644Z,101083.00
2022-11-03T12:25:08.052Z,101084.00
2022-11-03T12:27:49.411Z,101079.00
2022-11-03T12:30:23.652Z,101073.00
2022-11-03T12:32:56.745Z,101078.00
2022-11-03T12:35:29.556Z,101076.00
2022-11-03T12:38:02.614Z,101078.00
2022-11-03T12:40:35.810Z,101074.00
2022-11-03T12:43:09.228Z,101036.00
2022-11-03T12:45:43.470Z,101070.00
2022-11-03T12:48:16.605Z,101066.00
2022-11-03T12:50:49.634Z,101067.00
2022-11-03T12:53:22.659Z,101079.00
2022-11-03T12:55:55.737Z,101074.00
2022-11-03T12:58:28.907Z,101073.00
2022-11-03T13:01:02.337Z,101076.00
2022-11-03T13:03:35.875Z,101067.00
2022-11-03T13:06:10.774Z,101071.00
2022-11-03T13:08:46.677Z,101075.00
2022-11-03T13:11:36.303Z,101081.00
2022-11-03T13:14:09.172Z,101073.00
2022-11-03T13:16:42.189Z,101084.00
2022-11-03T13:19:15.347Z,101080.00
2022-11-03T13:21:52.599Z,101080.00
2022-11-03T13:24:25.631Z,101081.00
2022-11-03T13:26:58.614Z,101074.00
2022-11-03T13:29:35.342Z,101080.00
2022-11-03T13:32:06.561Z,101085.00
2022-11-03T13:34:39.803Z,101084.00
2022-11-03T13:37:12.830Z,101087.00
2022-11-03T13:39:45.737Z,101074.00
2022-11-03T13:42:18.760Z,101079.00
2022-11-03T13:44:51.660Z,101073.00
2022-11-03T13:47:34.344Z,101072.00
2022-11-03T13:50:14.820Z,101072.00
2022-11-03T13:52:33.034Z,101078.00
2022-11-03T14:00:19.054Z,101078.00
2022-11-03T14:05:27.493Z,101084.00
2022-11-03T14:08:00.561Z,101094.00
2022-11-03T14:10:33.617Z,101091.00
2022-11-03T14:13:06.943Z,101093.00
2022-11-03T14:15:40.204Z,101091.00
2022-11-03T14:18:13.105Z,101099.00
2022-11-03T14:20:46.075Z,101094.00
2022-11-03T14:23:19.122Z,101096.00
2022-11-03T14:26:00.541Z,101094.00
2022-11-03T14:28:26.485Z,101099.00
2022-11-03T14:31:00.742Z,101103.00
2022-11-03T14:33:33.696Z,101096.00
2022-11-03T14:36:07.009Z,101100.00
2022-11-03T14:38:40.028Z,101103.00
2022-11-03T14:41:30.337Z,101101.00
2022-11-03T14:44:04.270Z,101108.00
2022-11-03T14:46:40.250Z,101103.00
2022-11-03T14:49:13.607Z,101108.00
2022-11-03T14:51:46.788Z,101096.00
2022-11-03T14:54:19.702Z,101111.00
2022-11-03T14:56:52.854Z,101110.00
2022-11-03T14:59:29.890Z,101105.00
2022-11-03T15:02:03.504Z,101107.00
2022-11-03T15:04:37.668Z,101112.00
2022-11-03T15:07:10.610Z,101120.00
2022-11-03T15:09:46.189Z,101123.00
2022-11-03T15:12:19.525Z,101114.00
2022-11-03T15:14:52.986Z,101112.00
2022-11-03T15:17:26.008Z,101109.00
2022-11-03T15:19:58.993Z,101115.00
2022-11-03T15:25:13.389Z,101103.00
2022-11-03T15:27:40.907Z,101116.00
2022-11-03T15:30:14.611Z,101122.00
2022-11-03T15:32:47.599Z,101121.00
2022-11-03T15:35:20.803Z,101119.00
2022-11-03T15:37:55.294Z,101117.00
2022-11-03T15:40:28.854Z,101131.00
2022-11-03T15:43:03.095Z,101128.00
2022-11-03T15:45:36.204Z,101136.00
2022-11-03T15:48:09.692Z,101137.00
2022-11-03T15:50:43.405Z,101135.00
2022-11-03T15:53:17.840Z,101132.00
2022-11-03T15:55:51.220Z,101137.00
2022-11-03T15:58:28.466Z,101147.00
2022-11-03T16:01:01.887Z,101136.00
2022-11-03T16:03:35.227Z,101140.00
2022-11-03T16:06:09.293Z,101143.00
2022-11-03T16:08:42.181Z,101135.00
2022-11-03T16:11:15.471Z,101142.00
2022-11-03T16:13:48.941Z,101144.00
2022-11-03T16:16:21.974Z,101147.00
2022-11-03T16:18:54.925Z,101144.00
2022-11-03T16:21:27.976Z,101141.00
2022-11-03T16:24:00.912Z,101140.00
2022-11-03T16:26:34.044Z,101142.00
2022-11-03T16:29:07.067Z,101144.00
2022-11-03T16:31:40.019Z,101150.00
2022-11-03T16:34:17.004Z,101146.00
2022-11-03T16:36:49.996Z,101139.00
2022-11-03T16:39:23.251Z,101136.00
2022-11-03T16:41:56.982Z,101133.00
2022-11-03T16:44:29.809Z,101147.00
2022-11-03T16:47:04.326Z,101142.00
2022-11-03T16:49:37.259Z,101159.00
2022-11-03T16:52:10.282Z,101150.00
2022-11-03T16:54:43.331Z,101157.00
2022-11-03T16:57:16.356Z,101168.00
2022-11-03T16:59:49.289Z,101157.00
2022-11-03T17:02:22.350Z,101162.00
2022-11-03T17:04:55.309Z,101161.00
2022-11-03T17:07:28.251Z,101159.00
2022-11-03T17:10:01.548Z,101162.00
2022-11-03T17:12:34.346Z,101164.00
2022-11-03T17:15:07.709Z,101169.00
2022-11-03T17:17:40.626Z,101171.00
2022-11-03T17:20:14.311Z,101175.00
2022-11-03T17:22:51.468Z,101184.00
2022-11-03T17:25:24.425Z,101190.00
2022-11-03T17:27:59.196Z,101186.00
2022-11-03T17:30:34.584Z,101186.00
2022-11-03T17:33:12.329Z,101181.00
2022-11-03T17:35:47.408Z,101177.00
2022-11-03T17:38:21.560Z,101187.00
2022-11-03T17:40:54.698Z,101178.00
2022-11-03T17:43:32.014Z,101191.00
2022-11-03T17:46:05.192Z,101195.00
2022-11-03T17:48:38.013Z,101192.00
2022-11-03T17:51:13.092Z,101196.00
2022-11-03T17:53:46.796Z,101194.00
2022-11-03T17:56:30.039Z,101193.00
2022-11-03T17:58:55.557Z,101201.00
2022-11-03T18:01:29.900Z,101203.00
2022-11-03T18:04:04.264Z,101206.00
2022-11-03T18:06:37.303Z,101200.00
2022-11-03T18:09:10.341Z,101194.00
2022-11-03T18:12:02.559Z,101194.00
2022-11-03T18:14:35.772Z,101197.00
2022-11-03T18:17:08.672Z,101199.00
2022-11-03T18:19:41.507Z,101199.00
2022-11-03T18:22:14.937Z,101208.00
2022-11-03T18:24:48.350Z,101212.00
2022-11-03T18:27:25.120Z,101218.00
2022-11-03T18:29:55.723Z,101224.00
2022-11-03T18:32:31.826Z,101232.00
2022-11-03T18:35:02.738Z,101229.00
2022-11-03T18:37:36.647Z,101239.00
2022-11-03T18:40:11.195Z,101239.00
2022-11-03T18:42:43.956Z,101238.00
2022-11-03T18:45:19.154Z,101247.00
2022-11-03T18:47:59.205Z,101247.00
2022-11-03T18:50:34.512Z,101256.00
2022-11-03T18:53:09.042Z,101254.00
2022-11-03T18:55:42.694Z,101254.00
2022-11-03T18:58:20.102Z,101252.00
2022-11-03T19:00:53.062Z,101263.00
2022-11-03T19:03:27.233Z,101267.00
2022-11-03T19:06:00.377Z,101273.00
2022-11-03T19:08:35.476Z,101278.00
2022-11-03T19:11:08.715Z,101274.00
2022-11-03T19:13:44.579Z,101274.00
2022-11-03T19:16:25.525Z,101272.00
2022-11-03T19:18:58.489Z,101273.00
2022-11-03T19:21:31.456Z,101276.00
2022-11-03T19:24:04.310Z,101286.00
2022-11-03T19:26:38.947Z,101289.00
2022-11-03T19:29:16.451Z,101294.00
2022-11-03T19:31:53.248Z,101291.00
2022-11-03T19:34:34.353Z,101294.00
2022-11-03T19:37:07.969Z,101305.00
2022-11-03T19:39:42.807Z,101306.00
2022-11-03T19:42:33.122Z,101297.00
2022-11-03T19:45:08.146Z,101306.00
2022-11-03T19:48:10.521Z,101303.00
2022-11-03T19:50:23.178Z,101302.00
2022-11-03T19:53:02.431Z,101298.00
2022-11-03T19:55:42.952Z,101307.00
2022-11-03T19:58:22.891Z,101302.00
2022-11-03T20:00:56.492Z,101313.00
2022-11-03T20:03:30.000Z,101299.00
2022-11-03T20:06:03.870Z,101300.00
2022-11-03T20:08:37.604Z,101315.00
2022-11-03T20:11:10.831Z,101317.00
2022-11-03T20:13:45.536Z,101318.00
2022-11-03T20:16:24.712Z,101321.00
2022-11-03T20:18:57.750Z,101319.00
2022-11-03T20:21:34.211Z,101334.00
2022-11-03T20:24:13.504Z,101343.00
2022-11-03T20:26:46.554Z,101337.00
2022-11-03T20:29:20.440Z,101344.00
2022-11-03T20:32:43.796Z,101341.00
2022-11-03T20:34:45.817Z,101343.00
2022-11-03T20:37:23.143Z,101343.00
2022-11-03T20:39:56.343Z,101348.00
2022-11-03T20:42:30.777Z,101342.00
2022-11-03T20:45:07.402Z,101344.00
2022-11-03T20:47:43.335Z,101349.00
2022-11-03T20:50:15.840Z,101348.00
2022-11-03T20:52:49.591Z,101341.00
2022-11-03T20:55:30.003Z,101340.00
2022-11-03T20:58:03.008Z,101340.00
2022-11-03T21:00:37.118Z,101336.00
2022-11-03T21:03:25.369Z,101338.00
2022-11-03T21:05:47.214Z,101340.00
2022-11-03T21:08:20.061Z,101334.00
2022-11-03T21:10:53.084Z,101336.00
2022-11-03T21:13:26.310Z,101330.00
2022-11-03T21:16:24.525Z,101335.00
2022-11-03T21:19:10.162Z,101338.00
2022-11-03T21:21:43.462Z,101348.00
2022-11-03T21:24:19.728Z,101351.00
2022-11-03T21:26:52.578Z,101342.00
2022-11-03T21:29:57.665Z,101337.00
2022-11-03T21:32:03.279Z,101342.00
2022-11-03T21:34:36.231Z,101334.00
2022-11-03T21:37:08.908Z,101327.00
2022-11-03T21:39:41.894Z,101326.00
2022-11-03T21:42:38.199Z,101330.00
2022-11-03T21:45:12.066Z,101333.00
2022-11-03T21:47:46.222Z,101321.00
2022-11-03T21:50:19.155Z,101319.00
2022-11-03T21:52:52.109Z,101315.00
2022-11-03T21:55:25.045Z,101322.00
2022-11-03T21:57:57.965Z,101311.00
2022-11-03T22:00:30.801Z,101311.00
2022-11-03T22:03:04.924Z,101316.00
2022-11-03T22:05:41.834Z,101315.00
2022-11-03T22:08:14.732Z,101317.00
2022-11-03T22:10:47.777Z,101317.00
2022-11-03T22:13:20.745Z,101314.00
2022-11-03T22:16:15.771Z,101310.00
2022-11-03T22:18:49.241Z,101309.00
2022-11-03T22:21:39.194Z,101316.00
2022-11-03T22:24:30.551Z,101303.00
2022-11-03T22:27:03.802Z,101307.00
2022-11-03T22:29:53.972Z,101311.00
2022-11-03T22:32:26.931Z,101319.00
2022-11-03T22:35:17.678Z,101318.00
2022-11-03T22:37:50.767Z,101334.00
2022-11-03T22:40:40.977Z,101330.00
2022-11-03T22:43:32.322Z,101325.00
2022-11-03T22:46:05.433Z,101329.00
2022-11-03T22:48:38.513Z,101323.00
2022-11-03T22:51:16.587Z,101323.00
2022-11-03T22:54:09.320Z,101329.00
2022-11-03T22:56:42.890Z,101333.00
2022-11-03T22:59:15.899Z,101335.00
2022-11-03T23:01:48.939Z,101342.00
2022-11-03T23:04:22.100Z,101346.00
2022-11-03T23:06:55.199Z,101349.00
2022-11-03T23:09:28.079Z,101346.00
2022-11-03T23:12:01.083Z,101350.00
2022-11-03T23:14:35.349Z,101336.00
2022-11-03T23:17:08.294Z,101345.00
2022-11-03T23:19:58.999Z,101331.00
2022-11-03T23:22:32.088Z,101325.00
2022-11-03T23:25:04.908Z,101331.00
2022-11-03T23:27:37.725Z,101336.00
2022-11-03T23:30:11.609Z,101328.00
2022-11-03T23:32:44.477Z,101320.00
2022-11-03T23:35:17.503Z,101322.00
2022-11-03T23:37:50.354Z,101331.00
2022-11-03T23:40:23.436Z,101336.00
2022-11-03T23:42:56.413Z,101328.00
2022-11-03T23:45:47.264Z,101335.00
2022-11-03T23:48:37.649Z,101338.00
2022-11-03T23:51:10.858Z,101347.00
2022-11-03T23:53:43.932Z,101343.00
2022-11-03T23:56:35.498Z,101346.00
2022-11-03T23:59:09.161Z,101341.00
